Time;durP1;ratioP1;P1;durP2;ratioP2;P2;SDS_P1;SDS_P2;PMS_P1;PMS_P2;Temp;Humidity;BMP_temperature;BMP_pressure;BME280_temperature;BME280_humidity;BME280_pressure;Samples;Min_cycle;Max_cycle;Signal;HPM_P1;HPM_P2
2021/09/11 00:01:50;;;;;;;7.97;6.38;;;;;;;16.53;75.14;95792.25;6142728;23;20568;-79
2021/09/11 00:04:15;;;;;;;6.85;6.25;;;;;;;16.52;74.56;95796.69;6167883;23;20162;-79
2021/09/11 00:06:40;;;;;;;6.65;6.05;;;;;;;16.52;74.87;95795.84;6142402;23;20166;-80
2021/09/11 00:09:06;;;;;;;8.05;7.25;;;;;;;16.50;75.49;95795.22;6167770;23;20155;-78
2021/09/11 00:11:31;;;;;;;7.85;7.05;;;;;;;16.50;75.62;95795.22;6169682;23;20234;-77
2021/09/11 00:13:57;;;;;;;9.07;7.25;;;;;;;16.48;76.03;95790.16;6166023;23;20177;-78
2021/09/11 00:16:22;;;;;;;7.65;6.95;;;;;;;16.45;76.38;95789.69;6167551;23;20250;-79
2021/09/11 00:18:48;;;;;;;8.10;7.38;;;;;;;16.42;77.17;95788.22;6168319;23;20466;-78
2021/09/11 00:21:13;;;;;;;7.05;6.35;;;;;;;16.39;77.55;95785.97;6169652;23;20190;-79
2021/09/11 00:23:39;;;;;;;8.30;6.15;;;;;;;16.34;77.71;95790.91;6166189;23;20162;-78
2021/09/11 00:26:04;;;;;;;7.20;6.50;;;;;;;16.36;77.40;95792.38;6142516;23;20179;-80
2021/09/11 00:28:29;;;;;;;7.47;6.82;;;;;;;16.30;77.93;95784.41;6167352;23;20155;-78
2021/09/11 00:30:55;;;;;;;6.90;6.30;;;;;;;16.25;77.91;95784.94;6147398;23;20186;-77
2021/09/11 00:33:20;;;;;;;6.90;6.30;;;;;;;16.23;78.21;95786.91;6169565;23;20159;-79
2021/09/11 00:35:45;;;;;;;7.22;6.63;;;;;;;16.27;77.86;95792.63;6157920;23;20197;-77
2021/09/11 00:38:11;;;;;;;7.22;6.60;;;;;;;16.24;78.32;95792.97;6159030;23;20209;-78
2021/09/11 00:40:36;;;;;;;6.95;6.35;;;;;;;16.21;78.44;95788.09;6158774;23;20163;-79
2021/09/11 00:43:01;;;;;;;7.72;6.93;;;;;;;16.22;78.69;95802.81;6160664;23;20283;-78
2021/09/11 00:45:27;;;;;;;7.90;7.05;;;;;;;16.18;79.14;95794.50;6159849;23;20167;-78
2021/09/11 00:47:52;;;;;;;7.45;6.75;;;;;;;16.14;79.56;95798.47;6136204;23;20183;-78
2021/09/11 00:50:18;;;;;;;8.10;7.40;;;;;;;16.12;79.72;95800.44;6135853;23;20151;-78
2021/09/11 00:52:44;;;;;;;8.10;7.20;;;;;;;16.12;79.70;95800.44;6160743;23;20593;-77
2021/09/11 00:55:12;;;;;;;7.85;7.05;;;;;;;16.11;80.04;95799.63;6158844;23;20193;-78
2021/09/11 00:57:40;;;;;;;8.85;7.70;;;;;;;16.13;80.51;95800.25;6160301;23;20155;-78
2021/09/11 01:00:06;;;;;;;7.78;6.97;;;;;;;16.08;80.52;95804.41;6161025;23;20178;-78
2021/09/11 01:02:32;;;;;;;8.15;7.45;;;;;;;16.00;80.61;95802.66;6162343;23;20198;-78
2021/09/11 01:04:57;;;;;;;8.90;8.07;;;;;;;15.99;81.18;95801.03;6160035;23;20171;-79
2021/09/11 01:07:24;;;;;;;8.30;7.38;;;;;;;15.99;80.50;95801.03;6165813;23;20186;-78
2021/09/11 01:09:50;;;;;;;8.45;7.65;;;;;;;16.01;80.49;95796.44;6170007;23;20190;-78
2021/09/11 01:12:15;;;;;;;8.38;7.60;;;;;;;15.96;81.00;95788.28;6170052;23;20215;-77
2021/09/11 01:14:41;;;;;;;8.02;7.22;;;;;;;15.97;80.76;95799.56;6143845;23;20183;-78
2021/09/11 01:17:13;;;;;;;8.48;7.68;;;;;;;15.92;81.11;95800.09;6145593;23;20183;-79
2021/09/11 01:19:38;;;;;;;9.57;8.68;;;;;;;15.90;81.83;95796.81;6146758;23;20227;-79
2021/09/11 01:22:03;;;;;;;10.27;9.02;;;;;;;15.91;82.00;95795.84;6171396;23;20183;-77
2021/09/11 01:24:29;;;;;;;9.15;8.25;;;;;;;15.88;82.21;95796.19;6172274;23;20222;-78
2021/09/11 01:26:54;;;;;;;9.43;8.48;;;;;;;15.85;82.52;95796.53;6148040;23;20209;-79
2021/09/11 01:29:19;;;;;;;8.75;7.97;;;;;;;15.84;82.85;95795.72;6172805;23;20275;-78
2021/09/11 01:31:45;;;;;;;8.43;7.63;;;;;;;15.85;83.14;95799.16;6172760;23;20560;-79
2021/09/11 01:34:10;;;;;;;7.40;6.78;;;;;;;15.82;83.25;95802.16;6173148;23;20171;-79
2021/09/11 01:36:36;;;;;;;8.57;6.75;;;;;;;15.80;83.03;95797.06;6172733;23;20235;-78
2021/09/11 01:39:01;;;;;;;8.63;7.30;;;;;;;15.81;83.38;95803.09;6171322;23;20157;-78
2021/09/11 01:41:26;;;;;;;7.63;6.93;;;;;;;15.79;83.66;95800.66;6172008;23;20179;-79
2021/09/11 01:43:52;;;;;;;7.90;7.20;;;;;;;15.80;83.94;95796.25;6171422;23;20155;-77
2021/09/11 01:46:17;;;;;;;7.88;7.07;;;;;;;15.83;83.49;95801.16;6170097;23;20548;-77
2021/09/11 01:48:43;;;;;;;7.72;6.93;;;;;;;15.79;83.61;95800.66;6141084;23;20621;-77
2021/09/11 01:51:08;;;;;;;9.10;8.07;;;;;;;15.81;83.87;95798.72;6162467;23;20180;-77
2021/09/11 01:53:34;;;;;;;8.40;7.63;;;;;;;15.77;84.03;95800.03;6160601;23;20493;-77
2021/09/11 01:55:59;;;;;;;9.35;8.32;;;;;;;15.81;84.32;95793.47;6162625;23;20202;-77
2021/09/11 01:58:24;;;;;;;8.05;7.25;;;;;;;15.74;84.43;95794.34;6162491;23;20170;-77
2021/09/11 02:00:49;;;;;;;10.00;7.53;;;;;;;15.73;84.33;95800.56;6162320;23;20155;-78
2021/09/11 02:03:15;;;;;;;7.88;7.10;;;;;;;15.68;84.36;95802.88;6162323;23;20866;-78
2021/09/11 02:05:40;;;;;;;8.82;6.28;;;;;;;15.70;84.10;95806.13;6137325;23;20186;-77
2021/09/11 02:08:07;;;;;;;6.68;6.07;;;;;;;15.62;84.30;95798.31;6161925;23;20164;-77
2021/09/11 02:10:33;;;;;;;6.78;6.18;;;;;;;15.59;84.46;95807.31;6163045;23;20503;-77
2021/09/11 02:12:59;;;;;;;7.15;6.55;;;;;;;15.65;84.38;95804.03;6144798;23;20215;-79
2021/09/11 02:15:24;;;;;;;6.60;6.00;;;;;;;15.63;84.76;95799.94;6170957;23;20262;-77
2021/09/11 02:17:50;;;;;;;6.68;5.95;;;;;;;15.57;84.98;95812.72;6148467;23;20218;-79
2021/09/11 02:20:15;;;;;;;7.03;6.43;;;;;;;15.62;84.85;95809.59;6148801;23;20159;-76
2021/09/11 02:22:40;;;;;;;8.23;6.50;;;;;;;15.51;85.18;95802.94;6173004;23;20238;-78
2021/09/11 02:25:06;;;;;;;6.78;6.15;;;;;;;15.55;85.41;95793.75;6171996;23;20190;-79
2021/09/11 02:27:32;;;;;;;7.07;6.47;;;;;;;15.59;85.59;95795.03;6172366;23;20178;-80
2021/09/11 02:29:57;;;;;;;6.57;6.07;;;;;;;15.62;85.36;95795.69;6172050;23;20161;-78
2021/09/11 02:32:23;;;;;;;7.05;6.45;;;;;;;15.56;86.07;95798.00;6172243;23;20155;-79
2021/09/11 02:34:48;;;;;;;6.60;5.93;;;;;;;15.56;86.66;95805.84;6146472;23;20202;-79
2021/09/11 02:37:14;;;;;;;6.28;5.68;;;;;;;15.49;87.32;95804.91;6170933;23;20159;-77
2021/09/11 02:39:43;;;;;;;6.10;5.60;;;;;;;15.44;88.04;95807.22;6169618;23;20155;-78
2021/09/11 02:42:09;;;;;;;5.80;5.30;;;;;;;15.48;87.98;95803.28;6170837;23;20768;-80
2021/09/11 02:44:34;;;;;;;6.13;5.53;;;;;;;15.53;87.70;95803.56;6168433;23;20179;-79
2021/09/11 02:47:00;;;;;;;6.00;5.35;;;;;;;15.52;87.70;95807.16;6169937;23;20355;-78
2021/09/11 02:49:25;;;;;;;6.15;5.65;;;;;;;15.53;87.52;95800.13;6169286;23;20162;-78
2021/09/11 02:51:50;;;;;;;6.50;4.45;;;;;;;15.53;87.43;95803.56;6144515;23;20233;-79
2021/09/11 02:54:16;;;;;;;5.22;4.78;;;;;;;15.50;87.70;95803.91;6143335;23;20155;-78
2021/09/11 02:56:41;;;;;;;6.55;5.95;;;;;;;15.46;88.12;95802.66;6168204;23;20148;-78
2021/09/11 02:59:06;;;;;;;5.55;4.95;;;;;;;15.52;87.69;95801.94;6168449;23;20602;-78
2021/09/11 03:01:32;;;;;;;5.72;4.75;;;;;;;15.53;88.14;95806.19;6167786;23;20651;-78
2021/09/11 03:03:57;;;;;;;5.53;5.00;;;;;;;15.52;88.17;95808.97;6166536;23;20250;-79
2021/09/11 03:06:22;;;;;;;5.30;4.55;;;;;;;15.51;88.17;95807.34;6167258;23;20637;-78
2021/09/11 03:08:47;;;;;;;4.85;3.95;;;;;;;15.46;88.47;95801.81;6166638;23;20155;-77
2021/09/11 03:11:13;;;;;;;5.38;4.88;;;;;;;15.47;88.37;95801.66;6165869;23;20214;-78
2021/09/11 03:13:38;;;;;;;5.40;4.90;;;;;;;15.42;88.57;95798.72;6165332;23;20183;-79
2021/09/11 03:16:04;;;;;;;5.88;5.32;;;;;;;15.48;88.18;95792.81;6141833;23;20183;-77
2021/09/11 03:18:29;;;;;;;6.70;5.05;;;;;;;15.47;88.33;95798.22;6165328;23;20206;-79
2021/09/11 03:20:54;;;;;;;5.93;5.43;;;;;;;15.42;88.74;95793.50;6140446;23;20177;-78
2021/09/11 03:23:20;;;;;;;6.35;5.13;;;;;;;15.45;89.12;95798.38;6166063;23;20152;-77
2021/09/11 03:25:45;;;;;;;5.25;4.85;;;;;;;15.48;88.57;95786.75;6166137;23;20244;-79
2021/09/11 03:28:11;;;;;;;5.75;5.03;;;;;;;15.47;88.55;95798.22;6165458;23;20170;-79
2021/09/11 03:30:36;;;;;;;5.85;5.10;;;;;;;15.49;88.62;95786.59;6164131;23;20159;-78
2021/09/11 03:33:02;;;;;;;6.00;5.50;;;;;;;15.46;88.35;95792.19;6165516;23;20150;-79
2021/09/11 03:35:28;;;;;;;6.05;5.50;;;;;;;15.45;88.45;95795.75;6139092;23;20715;-77
2021/09/11 03:37:54;;;;;;;5.72;5.22;;;;;;;15.49;88.26;95797.06;6167240;23;20152;-79
2021/09/11 03:40:19;;;;;;;6.10;5.50;;;;;;;15.44;88.42;95796.75;6140353;23;20209;-77
2021/09/11 03:42:45;;;;;;;6.40;5.78;;;;;;;15.47;88.17;95791.19;6141274;23;20179;-77
2021/09/11 03:45:10;;;;;;;5.63;5.13;;;;;;;15.45;88.32;95782.66;6163362;23;20203;-78
2021/09/11 03:47:36;;;;;;;6.32;5.75;;;;;;;15.41;88.42;95801.50;6163928;23;20163;-78
2021/09/11 03:50:05;;;;;;;6.68;6.07;;;;;;;15.34;88.70;95796.13;6140306;23;20171;-78
2021/09/11 03:52:30;;;;;;;6.30;5.72;;;;;;;15.33;88.90;95799.75;6164734;23;20207;-78
2021/09/11 03:54:55;;;;;;;6.22;5.70;;;;;;;15.23;89.18;95789.50;6139352;23;20214;-77
2021/09/11 03:57:21;;;;;;;5.55;4.97;;;;;;;15.29;89.02;95793.25;6164015;23;20171;-79
2021/09/11 03:59:46;;;;;;;5.72;5.22;;;;;;;15.33;89.16;95789.28;6162785;23;20166;-78
2021/09/11 04:02:11;;;;;;;6.20;5.60;;;;;;;15.34;88.96;95790.09;6139409;23;20190;-77
2021/09/11 04:04:37;;;;;;;5.75;5.25;;;;;;;15.30;89.30;95787.00;6137584;23;20189;-77
2021/09/11 04:07:02;;;;;;;6.35;5.80;;;;;;;15.33;89.05;95791.09;6164814;23;20151;-78
2021/09/11 04:09:27;;;;;;;5.80;5.30;;;;;;;15.29;89.04;95793.25;6166717;23;20182;-78
2021/09/11 04:11:53;;;;;;;6.13;5.63;;;;;;;15.36;89.20;95793.34;6139824;23;20601;-80
2021/09/11 04:14:18;;;;;;;6.18;5.68;;;;;;;15.31;89.15;95791.25;6162118;23;20177;-79
2021/09/11 04:16:43;;;;;;;5.57;4.82;;;;;;;15.30;89.27;95790.44;6164733;23;20161;-79
2021/09/11 04:19:09;;;;;;;5.25;4.75;;;;;;;15.29;89.17;95788.00;6163307;23;20230;-80
2021/09/11 04:21:34;;;;;;;5.88;5.10;;;;;;;15.28;89.36;95794.19;6164006;23;20206;-79
2021/09/11 04:24:04;;;;;;;6.18;4.63;;;;;;;15.33;89.24;95797.13;6163035;23;20151;-78
2021/09/11 04:26:29;;;;;;;5.88;5.38;;;;;;;15.32;89.57;95797.31;6164005;23;20234;-80
2021/09/11 04:28:54;;;;;;;5.15;4.75;;;;;;;15.32;89.59;95798.13;6139792;23;20159;-79
2021/09/11 04:31:19;;;;;;;5.63;5.13;;;;;;;15.35;89.35;95803.00;6164531;23;20616;-78
2021/09/11 04:33:45;;;;;;;6.10;5.10;;;;;;;15.33;89.56;95801.56;6162350;23;20262;-78
2021/09/11 04:36:10;;;;;;;5.35;4.85;;;;;;;15.32;89.65;95803.34;6139885;23;20179;-79
2021/09/11 04:38:36;;;;;;;5.18;4.78;;;;;;;15.29;89.75;95807.13;6164406;23;20210;-78
2021/09/11 04:41:01;;;;;;;5.43;4.93;;;;;;;15.37;89.84;95805.44;6138435;23;20163;-79
2021/09/11 04:43:26;;;;;;;6.20;5.60;;;;;;;15.34;89.83;95805.78;6138337;23;20162;-78
2021/09/11 04:45:52;;;;;;;6.68;5.40;;;;;;;15.37;89.39;95810.69;6163028;23;20178;-80
2021/09/11 04:48:17;;;;;;;5.88;5.20;;;;;;;15.35;89.98;95808.22;6164781;23;20601;-79
2021/09/11 04:50:42;;;;;;;7.03;4.53;;;;;;;15.37;90.03;95811.53;6165084;23;20166;-79
2021/09/11 04:53:08;;;;;;;5.35;4.95;;;;;;;15.36;90.40;95815.09;6163966;23;20147;-81
2021/09/11 04:55:33;;;;;;;5.50;5.00;;;;;;;15.36;90.95;95812.47;6138534;23;20198;-79
2021/09/11 04:57:58;;;;;;;6.20;5.32;;;;;;;15.37;90.55;95822.00;6163884;23;20166;-78
2021/09/11 05:00:24;;;;;;;6.78;4.88;;;;;;;15.37;90.28;95816.75;6163540;23;20163;-78
2021/09/11 05:02:49;;;;;;;6.65;5.80;;;;;;;15.41;90.32;95823.25;6163891;23;20187;-78
2021/09/11 05:05:14;;;;;;;5.70;5.15;;;;;;;15.42;90.52;95824.06;6162791;23;20179;-80
2021/09/11 05:07:40;;;;;;;6.90;5.60;;;;;;;15.41;90.67;95833.72;6165400;23;20174;-79
2021/09/11 05:10:05;;;;;;;5.80;5.30;;;;;;;15.46;90.97;95830.59;6164187;23;20170;-80
2021/09/11 05:12:31;;;;;;;5.72;5.22;;;;;;;15.46;90.46;95836.66;6139496;23;20165;-80
2021/09/11 05:14:56;;;;;;;5.88;5.25;;;;;;;15.47;90.94;95827.81;6163368;23;20186;-78
2021/09/11 05:17:21;;;;;;;5.53;5.03;;;;;;;15.47;90.50;95830.44;6166576;23;20151;-79
2021/09/11 05:19:47;;;;;;;5.43;4.93;;;;;;;15.50;89.92;95821.41;6164846;23;20179;-81
2021/09/11 05:22:12;;;;;;;6.00;5.50;;;;;;;15.50;90.21;95824.84;6165544;23;20175;-77
2021/09/11 05:24:37;;;;;;;5.65;5.15;;;;;;;15.49;90.13;95825.84;6138028;23;20198;-78
2021/09/11 05:27:03;;;;;;;5.22;4.82;;;;;;;15.65;89.72;95826.78;6140221;23;20158;-79
2021/09/11 05:29:28;;;;;;;6.15;5.47;;;;;;;15.55;89.95;95830.41;6165269;23;20444;-78
2021/09/11 05:31:53;;;;;;;7.55;5.95;;;;;;;15.51;89.90;95829.09;6141256;23;20162;-77
2021/09/11 05:34:19;;;;;;;7.18;6.30;;;;;;;15.53;90.37;95837.59;6139895;23;20163;-78
2021/09/11 05:36:44;;;;;;;7.18;6.57;;;;;;;15.55;90.03;95829.59;6166401;23;20148;-77
2021/09/11 05:39:09;;;;;;;6.70;6.05;;;;;;;15.62;90.16;95835.78;6167485;23;20166;-79
2021/09/11 05:41:35;;;;;;;5.88;5.28;;;;;;;15.66;89.67;95838.88;6165124;23;20187;-77
2021/09/11 05:44:00;;;;;;;7.35;5.93;;;;;;;15.70;89.50;95842.78;6163513;23;20171;-78
2021/09/11 05:46:25;;;;;;;7.18;6.15;;;;;;;15.69;89.41;95841.97;6165527;23;20171;-77
2021/09/11 05:48:51;;;;;;;6.13;5.63;;;;;;;15.74;89.14;95844.91;6164855;23;20155;-77
2021/09/11 05:51:16;;;;;;;5.82;5.30;;;;;;;15.75;88.85;95846.53;6163897;23;20485;-77
2021/09/11 05:53:41;;;;;;;7.13;5.88;;;;;;;15.69;89.39;95852.44;6167283;23;20151;-78
2021/09/11 05:56:07;;;;;;;6.57;6.00;;;;;;;15.74;89.65;95849.31;6165175;23;20230;-77
2021/09/11 05:58:33;;;;;;;6.30;5.80;;;;;;;15.85;88.85;95848.91;6165223;23;20234;-78
2021/09/11 06:00:58;;;;;;;6.15;5.65;;;;;;;15.83;88.84;95851.72;6165600;23;20152;-77
2021/09/11 06:03:24;;;;;;;6.18;5.57;;;;;;;15.86;88.46;95853.16;6165061;23;20645;-79
2021/09/11 06:05:49;;;;;;;6.55;5.95;;;;;;;15.79;88.02;95857.44;6163415;23;20258;-79
2021/09/11 06:08:15;;;;;;;6.82;6.22;;;;;;;15.90;88.21;95864.91;6164106;23;20151;-78
2021/09/11 06:10:40;;;;;;;5.95;5.45;;;;;;;15.95;88.50;95838.22;6139706;23;20167;-80
2021/09/11 06:13:06;;;;;;;5.90;5.30;;;;;;;16.08;87.92;95841.09;6164501;23;20158;-78
2021/09/11 06:15:31;;;;;;;8.52;5.32;;;;;;;16.10;87.98;95842.53;6163323;23;20199;-78
2021/09/11 06:17:56;;;;;;;6.97;5.68;;;;;;;16.17;88.04;95839.19;6164908;23;20474;-79
2021/09/11 06:20:22;;;;;;;6.32;5.82;;;;;;;16.29;87.33;95837.81;6166720;23;20160;-79
2021/09/11 06:22:47;;;;;;;7.22;5.55;;;;;;;16.34;86.87;95838.94;6145825;23;20193;-79
2021/09/11 06:25:13;;;;;;;7.20;6.35;;;;;;;16.42;86.26;95836.22;6172201;23;20183;-79
2021/09/11 06:27:40;;;;;;;5.72;5.22;;;;;;;16.35;86.13;95845.81;6173873;23;20151;-79
2021/09/11 06:30:09;;;;;;;6.18;5.68;;;;;;;16.30;86.47;95847.31;6149130;23;20170;-77
2021/09/11 06:32:35;;;;;;;6.22;5.72;;;;;;;16.17;86.74;95849.69;6148801;23;20171;-78
2021/09/11 06:35:01;;;;;;;6.13;5.53;;;;;;;16.15;86.66;95857.72;6171235;23;20182;-79
2021/09/11 06:37:26;;;;;;;6.30;5.72;;;;;;;15.98;87.78;95851.78;6171936;23;20155;-76
2021/09/11 06:39:51;;;;;;;5.22;4.72;;;;;;;15.99;87.89;95850.81;6169970;23;20207;-79
2021/09/11 06:42:19;;;;;;;6.07;5.57;;;;;;;16.03;87.70;95844.22;6147154;23;20207;-78
2021/09/11 06:44:45;;;;;;;5.68;5.18;;;;;;;16.02;87.62;95854.88;6169552;23;20186;-78
2021/09/11 06:47:10;;;;;;;5.10;4.70;;;;;;;15.98;87.15;95851.78;6146602;23;20159;-76
2021/09/11 06:49:35;;;;;;;6.35;5.75;;;;;;;16.17;86.58;95854.91;6146539;23;20166;-78
2021/09/11 06:52:01;;;;;;;5.72;5.00;;;;;;;16.32;85.95;95856.63;6169027;23;20162;-79
2021/09/11 06:54:26;;;;;;;6.72;5.72;;;;;;;16.70;85.46;95854.06;6167784;23;20510;-78
2021/09/11 06:56:51;;;;;;;5.57;5.07;;;;;;;16.83;83.83;95853.44;6171614;23;20550;-79
2021/09/11 06:59:17;;;;;;;5.53;4.95;;;;;;;16.93;83.21;95849.56;6169307;23;20190;-78
2021/09/11 07:01:42;;;;;;;5.22;4.60;;;;;;;17.13;83.03;95851.66;6144423;23;20229;-80
2021/09/11 07:04:07;;;;;;;5.00;4.60;;;;;;;17.14;82.87;95855.91;6168541;23;20156;-78
2021/09/11 07:06:32;;;;;;;4.70;4.30;;;;;;;17.24;82.46;95852.03;6144074;23;20159;-78
2021/09/11 07:08:58;;;;;;;4.40;3.97;;;;;;;17.21;82.23;95855.00;6168778;23;20210;-77
2021/09/11 07:11:23;;;;;;;4.47;4.07;;;;;;;17.10;82.06;95858.06;6169692;23;20155;-79
2021/09/11 07:13:48;;;;;;;4.70;4.30;;;;;;;17.10;82.49;95858.06;6167570;23;20167;-80
2021/09/11 07:16:14;;;;;;;5.07;4.05;;;;;;;17.23;81.54;95868.78;6143023;23;20668;-78
2021/09/11 07:18:39;;;;;;;4.57;4.13;;;;;;;17.22;81.75;95859.25;6169303;23;20162;-78
2021/09/11 07:21:05;;;;;;;4.57;4.18;;;;;;;17.18;81.85;95859.81;6167881;23;20224;-78
2021/09/11 07:23:30;;;;;;;4.15;3.85;;;;;;;17.26;82.03;95862.34;6167560;23;20190;-78
2021/09/11 07:25:55;;;;;;;6.00;4.22;;;;;;;17.36;81.80;95865.50;6167526;23;20274;-79
2021/09/11 07:28:21;;;;;;;5.18;4.22;;;;;;;17.27;82.35;95867.41;6170280;23;20203;-80
2021/09/11 07:30:46;;;;;;;4.57;4.18;;;;;;;17.31;82.37;95867.03;6167438;23;20238;-76
2021/09/11 07:33:11;;;;;;;5.10;4.30;;;;;;;17.23;82.06;95868.78;6166053;23;20155;-77
2021/09/11 07:35:36;;;;;;;4.53;4.13;;;;;;;17.23;82.12;95873.22;6165351;23;20175;-76
2021/09/11 07:38:02;;;;;;;7.25;4.38;;;;;;;17.49;81.19;95877.97;6142228;23;20193;-78
2021/09/11 07:40:27;;;;;;;4.30;3.90;;;;;;;17.84;80.04;95884.28;6140801;23;20166;-78
2021/09/11 07:42:52;;;;;;;6.75;4.57;;;;;;;18.27;79.06;95884.38;6168818;23;20234;-78
2021/09/11 07:45:18;;;;;;;5.35;4.10;;;;;;;18.50;78.42;95881.56;6141650;23;20213;-77
2021/09/11 07:47:43;;;;;;;5.45;4.20;;;;;;;18.61;76.94;95881.03;6141712;23;20171;-79
2021/09/11 07:50:10;;;;;;;4.40;3.60;;;;;;;18.97;74.98;95878.34;6166034;23;20155;-79
2021/09/11 07:52:36;;;;;;;4.55;3.70;;;;;;;18.99;75.54;95878.13;6169781;23;20148;-78
2021/09/11 07:55:01;;;;;;;3.88;3.58;;;;;;;19.14;75.60;95879.66;6164185;23;20179;-79
2021/09/11 07:57:26;;;;;;;4.00;3.60;;;;;;;19.12;74.13;95876.41;6165216;23;20473;-78
2021/09/11 07:59:52;;;;;;;5.03;3.13;;;;;;;18.95;73.69;95888.25;6141254;23;20616;-79
2021/09/11 08:02:17;;;;;;;4.63;4.13;;;;;;;18.71;75.01;95886.00;6142343;23;20186;-77
2021/09/11 08:04:43;;;;;;;3.78;3.40;;;;;;;18.86;74.70;95892.81;6166860;23;20667;-78
2021/09/11 08:07:08;;;;;;;5.20;3.63;;;;;;;19.01;73.75;95891.94;6166050;23;20167;-77
2021/09/11 08:09:34;;;;;;;3.95;3.60;;;;;;;19.00;73.37;95893.75;6174065;23;20163;-77
2021/09/11 08:11:59;;;;;;;3.53;3.22;;;;;;;18.99;73.81;95893.94;6165861;23;20154;-79
2021/09/11 08:14:24;;;;;;;4.07;3.78;;;;;;;18.91;74.66;95900.16;6161804;23;20155;-77
2021/09/11 08:16:50;;;;;;;4.93;4.43;;;;;;;18.98;76.00;95897.56;6142202;23;20164;-78
2021/09/11 08:19:15;;;;;;;4.43;4.03;;;;;;;18.89;76.06;95902.16;6142137;23;20163;-79
2021/09/11 08:21:40;;;;;;;4.57;3.83;;;;;;;18.94;75.50;95905.84;6168065;23;20235;-77
2021/09/11 08:24:06;;;;;;;4.75;4.22;;;;;;;18.88;74.55;95903.97;6174260;23;20203;-80
2021/09/11 08:26:31;;;;;;;5.82;4.47;;;;;;;18.88;75.21;95905.78;6164497;23;20185;-78
2021/09/11 08:28:56;;;;;;;4.65;4.25;;;;;;;19.05;75.09;95911.59;6159883;23;20163;-78
2021/09/11 08:31:23;;;;;;;4.25;3.80;;;;;;;19.06;73.77;95905.31;6159901;23;20163;-78
2021/09/11 08:33:48;;;;;;;4.43;4.03;;;;;;;18.92;74.41;95913.13;6158708;23;20162;-76
2021/09/11 08:36:13;;;;;;;4.32;3.92;;;;;;;19.23;73.51;95910.09;6161145;23;20245;-78
2021/09/11 08:38:38;;;;;;;3.75;3.42;;;;;;;19.01;74.05;95908.53;6159965;23;20163;-77
2021/09/11 08:41:06;;;;;;;5.22;3.85;;;;;;;18.84;74.82;95909.81;6159493;23;20200;-77
2021/09/11 08:43:32;;;;;;;4.20;3.75;;;;;;;19.00;74.74;95904.28;6160463;23;20167;-76
2021/09/11 08:45:57;;;;;;;4.10;3.70;;;;;;;19.12;74.86;95912.47;6161996;23;20182;-75
2021/09/11 08:48:24;;;;;;;4.53;3.78;;;;;;;18.73;75.63;95908.53;6137312;23;20195;-78
2021/09/11 08:50:51;;;;;;;4.28;3.88;;;;;;;18.85;74.99;95911.44;6161544;23;20163;-78
2021/09/11 08:53:16;;;;;;;4.53;4.13;;;;;;;19.01;73.93;95907.72;6138124;23;20162;-78
2021/09/11 08:55:42;;;;;;;4.35;3.95;;;;;;;19.23;73.63;95918.00;6138043;23;20195;-78
2021/09/11 08:58:08;;;;;;;4.20;3.90;;;;;;;19.47;72.95;95918.56;6136872;23;20167;-75
2021/09/11 09:00:41;;;;;;;5.55;4.50;;;;;;;19.27;74.25;95913.19;6164837;23;20156;-77
2021/09/11 09:03:23;;;;;;;5.30;4.60;;;;;;;19.39;73.53;95913.44;6165249;23;20614;-78
2021/09/11 09:05:49;;;;;;;5.13;4.63;;;;;;;19.48;72.09;95910.47;6168505;23;20171;-77
2021/09/11 09:08:14;;;;;;;5.30;4.80;;;;;;;19.20;74.08;95910.50;6170768;23;20182;-78
2021/09/11 09:10:39;;;;;;;4.95;4.47;;;;;;;19.32;74.17;95918.66;6172170;23;20162;-79
2021/09/11 09:13:05;;;;;;;4.97;4.57;;;;;;;19.22;75.02;95912.94;6169583;23;20489;-77
2021/09/11 09:15:31;;;;;;;5.75;5.10;;;;;;;18.74;76.60;95909.34;6169661;23;20175;-78
2021/09/11 09:17:56;;;;;;;5.90;5.30;;;;;;;18.80;78.14;95911.19;6167055;23;20546;-77
2021/09/11 09:20:30;;;;;;;6.07;5.47;;;;;;;18.84;78.14;95921.16;6140931;23;20159;-79
2021/09/11 09:22:58;;;;;;;8.57;6.00;;;;;;;18.61;78.54;95910.78;6165542;23;20163;-77
2021/09/11 09:25:26;;;;;;;5.90;5.35;;;;;;;18.66;80.16;95912.91;6165398;23;20171;-78
2021/09/11 09:27:54;;;;;;;6.63;5.65;;;;;;;18.58;81.14;95918.25;6138571;23;20178;-77
2021/09/11 09:30:21;;;;;;;6.25;5.38;;;;;;;18.35;81.29;95919.22;6163336;23;20166;-78
2021/09/11 09:32:48;;;;;;;6.80;6.10;;;;;;;18.31;82.28;95911.94;6165413;23;20151;-78
2021/09/11 09:35:22;;;;;;;6.68;5.53;;;;;;;17.90;84.81;95906.41;6137006;23;20187;-78
2021/09/11 09:38:10;;;;;;;6.68;6.07;;;;;;;17.95;86.11;95907.50;6140966;23;20474;-77
2021/09/11 09:40:41;;;;;;;6.63;5.75;;;;;;;17.85;85.85;95906.16;6163713;23;20152;-79
2021/09/11 09:43:08;;;;;;;6.10;5.53;;;;;;;17.96;85.38;95905.69;6142293;23;20175;-79
2021/09/11 09:45:34;;;;;;;6.97;6.38;;;;;;;17.91;86.95;95906.22;6167871;23;20183;-77
2021/09/11 09:48:05;;;;;;;7.55;6.75;;;;;;;17.76;86.69;95913.31;6167175;23;20594;-78
2021/09/11 09:50:38;;;;;;;6.70;6.10;;;;;;;17.95;85.35;95901.44;6166660;23;20163;-78
2021/09/11 09:53:04;;;;;;;7.22;6.50;;;;;;;17.70;85.64;95914.03;6169258;23;20147;-78
2021/09/11 09:55:30;;;;;;;7.68;6.65;;;;;;;17.77;86.46;95912.31;6168978;23;20660;-78
2021/09/11 09:57:55;;;;;;;6.70;6.10;;;;;;;17.93;85.70;95909.47;6166643;23;20187;-78
2021/09/11 10:00:21;;;;;;;8.02;7.03;;;;;;;18.00;84.71;95914.81;6168175;23;20336;-80
2021/09/11 10:02:46;;;;;;;7.25;6.47;;;;;;;17.85;85.80;95898.28;6167728;23;20175;-78
2021/09/11 10:05:12;;;;;;;7.32;6.60;;;;;;;17.90;85.95;95901.16;6163291;23;20179;-77
2021/09/11 10:07:46;;;;;;;7.15;6.07;;;;;;;18.07;84.92;95913.06;6139164;23;20205;-77
2021/09/11 10:10:12;;;;;;;6.82;6.22;;;;;;;18.05;85.40;95907.19;6164740;23;20148;-78
2021/09/11 10:12:41;;;;;;;7.00;6.40;;;;;;;17.98;85.42;95908.94;6163531;23;20168;-79
2021/09/11 10:15:27;;;;;;;8.93;5.47;;;;;;;18.02;83.20;95913.66;6163274;23;20183;-78
2021/09/11 10:17:54;;;;;;;6.85;6.25;;;;;;;18.09;83.14;95913.69;6164023;23;20665;-78
2021/09/11 10:20:20;;;;;;;6.43;5.75;;;;;;;18.16;83.50;95911.16;6139647;23;20193;-80
2021/09/11 10:23:07;;;;;;;5.30;4.90;;;;;;;18.13;82.42;95912.34;6138604;23;20197;-78
2021/09/11 10:25:40;;;;;;;9.52;5.53;;;;;;;18.21;82.53;95914.03;6138895;23;20513;-77
2021/09/11 10:28:25;;;;;;;5.85;5.25;;;;;;;18.14;82.46;95913.97;6138136;23;20544;-80
2021/09/11 10:31:11;;;;;;;7.80;5.13;;;;;;;18.02;83.94;95910.16;6166963;23;20166;-77
2021/09/11 10:33:39;;;;;;;5.60;5.10;;;;;;;18.20;83.47;95907.13;6148267;23;20159;-80
2021/09/11 10:36:10;;;;;;;4.97;4.47;;;;;;;18.27;83.55;95908.84;6150089;23;20179;-80
2021/09/11 10:38:40;;;;;;;4.60;4.20;;;;;;;18.47;81.86;95903.81;6174126;23;20140;-79
2021/09/11 10:41:14;;;;;;;4.68;4.13;;;;;;;18.38;82.05;95903.09;6173508;23;20155;-80
2021/09/11 10:44:05;;;;;;;4.90;4.40;;;;;;;18.53;81.60;95897.75;6172990;23;20160;-78
2021/09/11 10:46:46;;;;;;;4.60;4.20;;;;;;;18.68;81.09;95889.84;6173285;23;20493;-80
2021/09/11 10:49:27;;;;;;;5.22;4.72;;;;;;;18.71;82.02;95905.25;6174208;23;20207;-80
2021/09/11 10:52:00;;;;;;;5.25;4.85;;;;;;;18.74;81.14;95889.09;6171983;23;20152;-79
2021/09/11 10:54:28;;;;;;;5.28;4.78;;;;;;;18.96;80.08;95887.22;6169441;23;20163;-79
2021/09/11 10:56:59;;;;;;;5.22;4.72;;;;;;;19.19;78.98;95893.06;6146300;23;20186;-77
2021/09/11 10:59:25;;;;;;;4.80;4.32;;;;;;;19.21;78.41;95882.34;6171179;23;20159;-78
2021/09/11 11:02:21;;;;;;;4.35;3.95;;;;;;;19.41;77.34;95887.72;6144763;23;20197;-80
2021/09/11 11:04:49;;;;;;;4.45;4.05;;;;;;;19.34;78.02;95882.41;6144834;23;20214;-79
2021/09/11 11:07:17;;;;;;;4.90;4.30;;;;;;;19.36;77.86;95874.34;6171301;23;20234;-80
2021/09/11 11:09:57;;;;;;;4.35;3.95;;;;;;;19.51;76.23;95875.00;6168897;23;20489;-79
2021/09/11 11:12:26;;;;;;;3.92;3.60;;;;;;;19.63;75.27;95884.03;6169910;23;20142;-78
2021/09/11 11:15:01;;;;;;;5.00;3.70;;;;;;;19.58;75.80;95885.63;6168123;23;20389;-79
2021/09/11 11:17:27;;;;;;;5.15;4.30;;;;;;;19.86;74.93;95875.00;6168353;23;20566;-79
2021/09/11 11:19:54;;;;;;;4.30;3.90;;;;;;;19.91;74.12;95883.94;6143348;23;20159;-79
2021/09/11 11:22:38;;;;;;;3.60;3.30;;;;;;;20.32;73.42;95872.50;6145025;23;20565;-79
2021/09/11 11:25:05;;;;;;;4.82;3.75;;;;;;;20.49;72.18;95883.50;6169924;23;20194;-79
2021/09/11 11:27:31;;;;;;;3.85;3.42;;;;;;;20.55;71.26;95880.88;6142927;23;20166;-79
2021/09/11 11:29:58;;;;;;;3.83;3.50;;;;;;;20.57;70.45;95873.56;6167388;23;20159;-78
2021/09/11 11:32:25;;;;;;;5.82;3.40;;;;;;;20.60;68.27;95880.28;6142472;23;20178;-78